createdAt,value
2017-09-05T00:00:02.560Z,13.6
2017-09-05T00:05:03.295Z,13.6
2017-09-05T00:10:15.127Z,13.5
2017-09-05T00:15:05.389Z,13.5
2017-09-05T00:20:10.764Z,13.5
2017-09-05T00:25:02.468Z,13.5
2017-09-05T00:30:05.723Z,13.4
2017-09-05T00:35:02.439Z,13.4
2017-09-05T00:40:02.777Z,13.4
2017-09-05T00:45:02.486Z,13.4
2017-09-05T00:50:03.229Z,13.3
2017-09-05T00:55:05.472Z,13.2
2017-09-05T01:00:10.765Z,13.2
2017-09-05T01:05:02.431Z,13.1
2017-09-05T01:10:02.604Z,13.1
2017-09-05T01:15:05.841Z,13
2017-09-05T01:20:07.688Z,12.9
2017-09-05T01:25:04.883Z,12.9
2017-09-05T01:30:02.589Z,12.9
2017-09-05T01:35:05.853Z,12.7
2017-09-05T01:40:08.137Z,12.7
2017-09-05T01:45:05.320Z,12.7
2017-09-05T01:50:08.070Z,12.6
2017-09-05T01:55:02.792Z,12.6
2017-09-05T02:00:05.038Z,12.6
2017-09-05T02:05:02.726Z,12.6
2017-09-05T02:10:07.946Z,12.5
2017-09-05T02:15:05.143Z,12.4
2017-09-05T02:20:15.611Z,12.4
2017-09-05T02:25:04.852Z,12.4
2017-09-05T02:30:05.088Z,12.3
2017-09-05T02:35:07.875Z,12.3
2017-09-05T02:40:03.083Z,12.3
2017-09-05T02:45:02.809Z,12.3
2017-09-05T02:50:05.055Z,12.3
2017-09-05T02:55:02.748Z,12.2
2017-09-05T03:00:15.104Z,12.5
2017-09-05T03:05:05.340Z,12.6
2017-09-05T03:10:02.498Z,12.6
2017-09-05T03:15:05.300Z,12.7
2017-09-05T03:20:25.845Z,12.7
2017-09-05T03:25:05.050Z,12.7
2017-09-05T03:30:03.105Z,12.7
2017-09-05T03:35:02.798Z,12.7
2017-09-05T03:40:13.050Z,12.7
2017-09-05T03:45:02.750Z,12.7
2017-09-05T03:50:02.463Z,12.7
2017-09-05T03:55:10.762Z,12.6
2017-09-05T04:00:05.017Z,12.5
2017-09-05T04:05:05.238Z,12.5
2017-09-05T04:10:04.940Z,12.5
2017-09-05T04:15:10.236Z,12.5
2017-09-05T04:20:03.009Z,12.5
2017-09-05T04:25:05.293Z,12.5
2017-09-05T04:30:10.629Z,12.5
2017-09-05T04:35:02.360Z,12.5
2017-09-05T04:40:02.539Z,12.5
2017-09-05T04:45:03.277Z,12.5
2017-09-05T04:50:02.968Z,12.5
2017-09-05T04:55:05.220Z,12.4
2017-09-05T05:00:10.508Z,12.4
2017-09-05T05:05:05.721Z,12.4
2017-09-05T05:10:02.900Z,12.4
2017-09-05T05:15:02.637Z,12.4
2017-09-05T05:20:04.971Z,12.4
2017-09-05T05:25:07.759Z,12.4
2017-09-05T05:30:04.998Z,12.4
2017-09-05T05:35:05.229Z,12.5
2017-09-05T05:40:09.985Z,12.6
2017-09-05T05:45:02.723Z,12.6
2017-09-05T05:50:04.951Z,12.7
2017-09-05T05:55:05.154Z,12.8
2017-09-05T06:00:18.068Z,12.8
2017-09-05T06:05:05.277Z,12.8
2017-09-05T06:10:02.428Z,12.8
2017-09-05T06:15:03.106Z,12.9
2017-09-05T06:20:07.948Z,13.1
2017-09-05T06:25:05.159Z,13.2
2017-09-05T06:30:05.516Z,13.2
2017-09-05T06:35:05.766Z,13.3
2017-09-05T06:40:02.942Z,13.3
2017-09-05T06:45:05.244Z,13.5
2017-09-05T06:50:08.056Z,13.6
2017-09-05T06:55:05.415Z,13.8
2017-09-05T07:00:05.657Z,13.9
2017-09-05T07:05:02.868Z,13.9
2017-09-05T07:10:10.628Z,14.1
2017-09-05T07:15:02.331Z,14.1
2017-09-05T07:20:05.650Z,14.5
2017-09-05T07:25:04.897Z,14.6
2017-09-05T07:30:05.147Z,14.7
2017-09-05T07:35:02.842Z,14.6
2017-09-05T07:40:05.546Z,14.9
2017-09-05T07:45:10.840Z,15.1
2017-09-05T07:50:07.638Z,15.2
2017-09-05T07:55:04.856Z,15.4
2017-09-05T08:00:02.561Z,15.4
2017-09-05T08:05:15.936Z,15.8
2017-09-05T08:10:05.670Z,16
2017-09-05T08:15:02.369Z,16
2017-09-05T08:20:05.671Z,16.3
2017-09-05T08:25:09.940Z,16.5
2017-09-05T08:30:05.188Z,16.7
2017-09-05T08:35:05.450Z,16.8
2017-09-05T08:40:02.531Z,16.8
2017-09-05T08:45:05.760Z,17.1
2017-09-05T08:50:02.442Z,17.1
2017-09-05T08:55:08.225Z,17.4
2017-09-05T09:00:08.008Z,17.5
2017-09-05T09:05:02.705Z,17.4
2017-09-05T09:10:02.849Z,17.6
2017-09-05T09:15:02.580Z,17.8
2017-09-05T09:20:04.918Z,18
2017-09-05T09:25:02.600Z,18
2017-09-05T09:30:02.325Z,18.1
2017-09-05T09:35:05.601Z,18.3
2017-09-05T09:40:12.912Z,18.5
2017-09-05T09:45:07.643Z,18.6
2017-09-05T09:50:02.388Z,18.6
2017-09-05T09:55:03.131Z,18.7
2017-09-05T10:00:02.863Z,18.8
2017-09-05T10:05:05.103Z,19.2
2017-09-05T10:10:08.333Z,19.3
2017-09-05T10:15:03.018Z,19.3
2017-09-05T10:20:05.344Z,19.5
2017-09-05T10:25:05.655Z,19.7
2017-09-05T10:30:02.392Z,19.7
2017-09-05T10:35:05.671Z,19.8
2017-09-05T10:40:05.327Z,20
2017-09-05T10:45:03.035Z,20
2017-09-05T10:50:10.323Z,20.1
2017-09-05T10:55:05.546Z,20.3
2017-09-05T11:00:10.869Z,20.3
2017-09-05T11:05:02.561Z,20.3
2017-09-05T11:10:07.774Z,20.4
2017-09-05T11:15:05.040Z,20.5
2017-09-05T11:20:05.350Z,20.6
2017-09-05T11:25:03.068Z,20.6
2017-09-05T11:30:02.784Z,20.7
2017-09-05T11:35:15.161Z,20.9
2017-09-05T11:40:05.798Z,21
2017-09-05T11:45:07.600Z,21.2
2017-09-05T11:50:07.384Z,21.2
2017-09-05T11:55:03.115Z,21.2
2017-09-05T12:00:04.950Z,21.4
2017-09-05T12:05:02.645Z,21.4
2017-09-05T12:10:02.812Z,21.5
2017-09-05T12:15:17.725Z,21.7
2017-09-05T12:20:15.178Z,21.8
2017-09-05T12:25:05.381Z,21.9
2017-09-05T12:30:08.138Z,22.1
2017-09-05T12:35:02.856Z,22.1
2017-09-05T12:40:08.080Z,23.6
2017-09-05T12:45:07.849Z,26.3
2017-09-05T12:50:02.584Z,26.3
2017-09-05T12:55:05.823Z,28.9
2017-09-05T13:00:02.545Z,28.8
2017-09-05T13:05:08.328Z,30.3
2017-09-05T13:10:05.041Z,30.4
2017-09-05T13:15:02.786Z,30.4
2017-09-05T13:20:10.192Z,28.1
2017-09-05T13:25:05.410Z,29
2017-09-05T13:30:03.129Z,29
2017-09-05T13:35:02.856Z,31.8
2017-09-05T13:40:02.989Z,34
2017-09-05T13:45:07.756Z,35.6
2017-09-05T13:50:04.981Z,36.6
2017-09-05T13:55:17.899Z,35
2017-09-05T14:00:02.613Z,35
2017-09-05T14:05:04.920Z,36.2
2017-09-05T14:10:05.638Z,37.7
2017-09-05T14:15:02.310Z,37.6
2017-09-05T14:20:03.091Z,37.2
2017-09-05T14:25:10.699Z,36.1
2017-09-05T14:30:04.939Z,36.5
2017-09-05T14:35:02.609Z,36.5
2017-09-05T14:40:10.323Z,32.6
2017-09-05T14:45:03.028Z,32.6
2017-09-05T14:50:03.283Z,30.6
2017-09-05T14:55:10.612Z,27.8
2017-09-05T15:00:07.402Z,26.9
2017-09-05T15:05:05.666Z,26.2
2017-09-05T15:10:02.819Z,26.1
2017-09-05T15:15:07.616Z,26
2017-09-05T15:20:02.360Z,26
2017-09-05T15:25:03.049Z,25.9
2017-09-05T15:30:02.763Z,26
2017-09-05T15:35:02.495Z,25.8
2017-09-05T15:40:05.188Z,25.4
2017-09-05T15:45:05.417Z,25.4
2017-09-05T15:50:10.776Z,25.3
2017-09-05T15:55:02.480Z,25.3
2017-09-05T16:00:10.789Z,25
2017-09-05T16:05:02.510Z,25
2017-09-05T16:10:10.297Z,24.6
2017-09-05T16:15:03.003Z,24.6
2017-09-05T16:20:05.323Z,24.3
2017-09-05T16:25:05.562Z,24.1
2017-09-05T16:30:03.268Z,24
2017-09-05T16:35:05.547Z,23.6
2017-09-05T16:40:10.294Z,23.5
2017-09-05T16:45:02.973Z,23.5
2017-09-05T16:50:10.292Z,23.2
2017-09-05T16:55:05.520Z,23.1
2017-09-05T17:00:05.781Z,23
2017-09-05T17:05:07.559Z,22.8
2017-09-05T17:10:10.354Z,22.7
2017-09-05T17:15:03.041Z,22.7
2017-09-05T17:20:07.915Z,22.3
2017-09-05T17:25:02.627Z,22.3
2017-09-05T17:30:02.326Z,22.1
2017-09-05T17:35:05.590Z,21.8
2017-09-05T17:40:07.902Z,21.6
2017-09-05T17:45:07.663Z,21.5
2017-09-05T17:50:10.056Z,21.3
2017-09-05T17:55:07.795Z,21.2
2017-09-05T18:00:05.145Z,21.1
2017-09-05T18:05:05.544Z,21
2017-09-05T18:10:05.178Z,20.8
2017-09-05T18:15:03.020Z,20.8
2017-09-05T18:20:02.881Z,20.7
2017-09-05T18:25:05.128Z,20.4
2017-09-05T18:30:05.382Z,20.3
2017-09-05T18:35:20.807Z,20.2
2017-09-05T18:40:20.701Z,20
2017-09-05T18:45:04.906Z,19.9
2017-09-05T18:50:02.640Z,19.9
2017-09-05T18:55:09.943Z,19.7
2017-09-05T19:00:02.748Z,19.7
2017-09-05T19:05:02.449Z,19.5
2017-09-05T19:10:02.579Z,19.5
2017-09-05T19:15:03.334Z,19.3
2017-09-05T19:20:03.133Z,19.2
2017-09-05T19:25:10.463Z,18.9
2017-09-05T19:30:05.737Z,18.9
2017-09-05T19:35:02.477Z,18.9
2017-09-05T19:40:02.738Z,18.8
2017-09-05T19:45:02.418Z,18.7
2017-09-05T19:50:10.791Z,18.5
2017-09-05T19:55:04.986Z,18.5
2017-09-05T20:00:02.659Z,18.5
2017-09-05T20:05:04.880Z,18.4
2017-09-05T20:10:05.605Z,18.3
2017-09-05T20:15:08.370Z,18.2
2017-09-05T20:20:03.148Z,18.2
2017-09-05T20:25:15.517Z,18
2017-09-05T20:30:02.522Z,18
2017-09-05T20:35:03.311Z,18
2017-09-05T20:40:07.566Z,17.8
2017-09-05T20:45:03.300Z,17.9
2017-09-05T20:50:15.663Z,17.8
2017-09-05T20:55:07.427Z,17.7
2017-09-05T21:00:03.198Z,17.7
2017-09-05T21:05:02.918Z,17.7
2017-09-05T21:10:08.172Z,17.6
2017-09-05T21:15:05.435Z,17.6
2017-09-05T21:20:13.364Z,17.5
2017-09-05T21:25:05.580Z,17.5
2017-09-05T21:30:03.299Z,17.5
2017-09-05T21:35:08.098Z,17.4
2017-09-05T21:40:13.350Z,17.4
2017-09-05T21:45:18.218Z,17.3
2017-09-05T21:50:05.405Z,17.3
2017-09-05T21:55:10.708Z,17.3
2017-09-05T22:00:17.579Z,17.2
2017-09-05T22:05:05.831Z,17.2
2017-09-05T22:10:08.065Z,17.2
2017-09-05T22:15:03.027Z,17.2
2017-09-05T22:20:05.339Z,17
2017-09-05T22:25:03.048Z,17
2017-09-05T22:30:05.351Z,16.9
2017-09-05T22:35:05.598Z,16.9
2017-09-05T22:40:07.802Z,16.8
2017-09-05T22:45:05.009Z,16.8
2017-09-05T22:50:05.257Z,16.7
2017-09-05T22:55:02.909Z,16.7
2017-09-05T23:00:02.636Z,16.7
2017-09-05T23:05:04.876Z,16.6
2017-09-05T23:10:03.029Z,16.6
2017-09-05T23:15:02.720Z,16.5
2017-09-05T23:20:02.746Z,16.5
2017-09-05T23:25:02.449Z,16.4
2017-09-05T23:30:03.196Z,16.4
2017-09-05T23:35:07.972Z,16.3
2017-09-05T23:40:05.630Z,16.3
2017-09-05T23:45:02.328Z,16.2
2017-09-05T23:50:05.586Z,16.2
2017-09-05T23:55:03.273Z,16.2
